createdAt,value
2023-05-09T00:00:47.886Z,13.20
2023-05-09T00:03:34.178Z,15.05
2023-05-09T00:06:19.221Z,13.65
2023-05-09T00:09:04.976Z,14.35
2023-05-09T00:11:50.219Z,15.00
2023-05-09T00:14:35.609Z,13.77
2023-05-09T00:17:21.146Z,13.88
2023-05-09T00:20:09.335Z,14.57
2023-05-09T00:22:54.892Z,13.82
2023-05-09T00:25:39.796Z,13.60
2023-05-09T00:28:25.161Z,14.40
2023-05-09T00:31:10.059Z,14.43
2023-05-09T00:33:54.883Z,14.82
2023-05-09T00:36:40.174Z,14.32
2023-05-09T00:39:25.339Z,14.32
2023-05-09T00:42:10.506Z,14.68
2023-05-09T00:44:55.862Z,14.32
2023-05-09T00:47:41.398Z,14.25
2023-05-09T00:50:26.626Z,13.75
2023-05-09T00:53:12.480Z,14.05
2023-05-09T00:55:58.104Z,13.43
2023-05-09T00:58:43.971Z,14.07
2023-05-09T01:01:29.264Z,14.32
2023-05-09T01:04:15.267Z,13.30
2023-05-09T01:07:16.754Z,12.50
2023-05-09T01:10:08.469Z,12.27
2023-05-09T01:13:19.159Z,12.82
2023-05-09T01:16:16.430Z,12.60
2023-05-09T01:19:36.502Z,12.15
2023-05-09T01:22:29.896Z,11.25
2023-05-09T01:25:20.831Z,11.48
2023-05-09T01:28:05.649Z,11.02
2023-05-09T01:30:53.313Z,11.48
2023-05-09T01:33:42.471Z,11.85
2023-05-09T01:36:31.901Z,12.02
2023-05-09T01:39:19.192Z,11.45
2023-05-09T01:42:08.439Z,12.57
2023-05-09T01:44:54.656Z,11.25
2023-05-09T01:47:41.657Z,11.77
2023-05-09T01:50:29.557Z,10.95
2023-05-09T01:53:17.231Z,12.18
2023-05-09T01:56:04.274Z,11.88
2023-05-09T01:58:51.702Z,12.25
2023-05-09T02:01:37.535Z,12.30
2023-05-09T02:04:23.861Z,11.65
2023-05-09T02:07:10.715Z,11.55
2023-05-09T02:09:57.405Z,11.70
2023-05-09T02:12:42.403Z,10.70
2023-05-09T02:15:29.473Z,11.13
2023-05-09T02:18:14.585Z,11.10
2023-05-09T02:21:00.362Z,10.65
2023-05-09T02:23:45.493Z,11.05
2023-05-09T02:26:31.028Z,11.80
2023-05-09T02:29:20.383Z,10.77
2023-05-09T02:32:12.227Z,10.98
2023-05-09T02:34:58.932Z,10.65
2023-05-09T02:37:45.643Z,10.40
2023-05-09T02:40:31.085Z,10.98
2023-05-09T02:43:16.764Z,9.90
2023-05-09T02:46:02.010Z,10.35
2023-05-09T02:48:47.505Z,10.80
2023-05-09T02:51:32.815Z,10.27
2023-05-09T02:54:18.164Z,10.95
2023-05-09T02:57:03.956Z,10.63
2023-05-09T02:59:49.006Z,11.00
2023-05-09T03:02:34.520Z,10.32
2023-05-09T03:05:19.874Z,10.43
2023-05-09T03:08:05.575Z,10.02
2023-05-09T03:10:50.822Z,10.63
2023-05-09T03:13:36.076Z,9.90
2023-05-09T03:16:21.100Z,9.80
2023-05-09T03:19:06.293Z,10.32
2023-05-09T03:21:51.182Z,10.65
2023-05-09T03:24:36.007Z,10.13
2023-05-09T03:27:21.402Z,10.07
2023-05-09T03:30:06.992Z,10.80
2023-05-09T03:32:52.151Z,10.52
2023-05-09T03:35:37.485Z,10.88
2023-05-09T03:38:22.910Z,10.35
2023-05-09T03:41:08.237Z,10.10
2023-05-09T03:43:53.543Z,11.13
2023-05-09T03:46:38.631Z,11.50
2023-05-09T03:49:24.110Z,10.77
2023-05-09T03:52:09.443Z,10.60
2023-05-09T03:54:54.898Z,11.30
2023-05-09T03:57:40.281Z,11.82
2023-05-09T04:00:25.175Z,12.10
2023-05-09T04:03:10.921Z,12.70
2023-05-09T04:05:56.404Z,12.40
2023-05-09T04:08:42.069Z,12.13
2023-05-09T04:11:27.151Z,12.75
2023-05-09T04:14:12.650Z,13.82
2023-05-09T04:16:57.684Z,13.13
2023-05-09T04:19:42.956Z,13.65
2023-05-09T04:22:28.489Z,13.25
2023-05-09T04:25:13.999Z,13.40
2023-05-09T04:27:59.213Z,13.98
2023-05-09T04:30:44.475Z,14.20
2023-05-09T04:33:29.821Z,13.85
2023-05-09T04:36:14.720Z,13.88
2023-05-09T04:39:00.171Z,14.10
2023-05-09T04:41:45.847Z,14.45
2023-05-09T04:44:31.074Z,15.15
2023-05-09T04:47:16.320Z,14.88
2023-05-09T04:50:01.186Z,14.48
2023-05-09T04:52:46.074Z,15.00
2023-05-09T04:55:31.512Z,15.25
2023-05-09T04:58:16.922Z,15.50
2023-05-09T05:01:01.844Z,15.52
2023-05-09T05:03:47.130Z,16.02
2023-05-09T05:06:32.197Z,17.08
2023-05-09T05:09:17.609Z,16.20
2023-05-09T05:12:04.234Z,16.35
2023-05-09T05:14:50.736Z,16.58
2023-05-09T05:17:36.315Z,16.85
2023-05-09T05:20:21.528Z,17.45
2023-05-09T05:23:06.938Z,17.38
2023-05-09T05:25:52.072Z,18.25
2023-05-09T05:28:37.673Z,17.45
2023-05-09T05:31:22.970Z,17.80
2023-05-09T05:34:08.654Z,17.23
2023-05-09T05:36:53.953Z,17.52
2023-05-09T05:39:39.539Z,17.30
2023-05-09T05:42:24.792Z,16.73
2023-05-09T05:45:10.529Z,18.60
2023-05-09T05:47:55.368Z,17.55
2023-05-09T05:50:40.698Z,18.02
2023-05-09T05:53:25.970Z,17.60
2023-05-09T05:56:11.313Z,18.45
2023-05-09T05:58:56.841Z,23.85
2023-05-09T06:01:43.695Z,60.63
2023-05-09T06:04:31.685Z,21.40
2023-05-09T06:07:18.713Z,18.42
2023-05-09T06:10:04.211Z,18.45
2023-05-09T06:12:49.105Z,18.77
2023-05-09T06:15:34.614Z,18.85
2023-05-09T06:18:19.964Z,18.70
2023-05-09T06:21:05.579Z,19.80
2023-05-09T06:24:01.986Z,18.83
2023-05-09T06:26:53.068Z,19.20
2023-05-09T06:29:38.612Z,19.20
2023-05-09T06:32:23.829Z,19.23
2023-05-09T06:35:09.416Z,20.08
2023-05-09T06:37:54.702Z,20.02
2023-05-09T06:40:39.988Z,19.92
2023-05-09T06:43:25.418Z,20.02
2023-05-09T06:46:11.248Z,20.40
2023-05-09T06:48:56.615Z,56.03
2023-05-09T06:51:42.097Z,20.25
2023-05-09T06:54:27.400Z,20.35
2023-05-09T06:57:12.951Z,21.17
2023-05-09T06:59:58.385Z,20.63
2023-05-09T07:02:43.856Z,21.65
2023-05-09T07:05:29.289Z,20.85
2023-05-09T07:08:14.740Z,21.10
2023-05-09T07:11:00.198Z,21.55
2023-05-09T07:13:45.436Z,20.80
2023-05-09T07:16:31.057Z,20.70
2023-05-09T07:19:16.406Z,21.88
2023-05-09T07:22:01.605Z,21.40
2023-05-09T07:24:46.496Z,21.92
2023-05-09T07:27:31.837Z,21.50
2023-05-09T07:30:17.579Z,20.63
2023-05-09T07:33:03.408Z,21.30
2023-05-09T07:35:49.086Z,21.65
2023-05-09T07:38:34.241Z,21.65
2023-05-09T07:41:19.829Z,22.05
2023-05-09T07:44:05.159Z,19.83
2023-05-09T07:46:50.299Z,20.92
2023-05-09T07:49:35.726Z,20.90
2023-05-09T07:52:20.668Z,20.80
2023-05-09T07:55:06.141Z,20.23
2023-05-09T07:57:51.306Z,19.63
2023-05-09T08:00:36.767Z,20.23
2023-05-09T08:03:22.325Z,20.15
2023-05-09T08:06:07.734Z,19.17
2023-05-09T08:08:52.820Z,18.17
2023-05-09T08:11:38.414Z,18.60
2023-05-09T08:14:23.907Z,17.73
2023-05-09T08:17:09.353Z,17.52
2023-05-09T08:19:54.611Z,18.17
2023-05-09T08:22:40.431Z,17.00
2023-05-09T08:25:25.677Z,17.60
2023-05-09T08:28:11.047Z,17.58
2023-05-09T08:30:56.488Z,17.27
2023-05-09T08:33:42.121Z,17.70
2023-05-09T08:36:27.305Z,17.63
2023-05-09T08:39:12.752Z,18.25
2023-05-09T08:41:59.957Z,18.63
2023-05-09T08:44:45.445Z,17.90
2023-05-09T08:47:30.439Z,18.00
2023-05-09T08:50:16.976Z,16.90
2023-05-09T08:53:02.875Z,16.85
2023-05-09T08:55:51.648Z,17.60
2023-05-09T08:58:37.215Z,17.98
2023-05-09T09:01:22.525Z,17.15
2023-05-09T09:04:08.449Z,17.50
2023-05-09T09:06:54.183Z,18.27
2023-05-09T09:09:44.771Z,18.00
2023-05-09T09:12:31.075Z,18.13
2023-05-09T09:15:19.885Z,17.70
2023-05-09T09:18:07.992Z,16.60
2023-05-09T09:20:57.796Z,17.02
2023-05-09T09:23:45.373Z,17.75
2023-05-09T09:26:30.570Z,17.92
2023-05-09T09:29:17.813Z,18.08
2023-05-09T09:32:05.839Z,18.75
2023-05-09T09:34:50.895Z,18.02
2023-05-09T09:37:37.498Z,17.05
2023-05-09T09:40:24.258Z,16.75
2023-05-09T09:43:09.613Z,16.75
2023-05-09T09:45:55.232Z,16.88
2023-05-09T09:48:40.093Z,16.15
2023-05-09T09:51:27.372Z,16.58
2023-05-09T09:54:12.940Z,15.98
2023-05-09T09:56:58.316Z,17.38
2023-05-09T09:59:58.166Z,16.45
2023-05-09T10:02:56.933Z,16.90
2023-05-09T10:05:42.431Z,16.25
2023-05-09T10:08:27.447Z,17.17
2023-05-09T10:11:13.601Z,17.52
2023-05-09T10:13:58.634Z,17.40
2023-05-09T10:16:44.846Z,16.60
2023-05-09T10:19:30.746Z,16.40
2023-05-09T10:22:18.054Z,16.27
2023-05-09T10:25:05.713Z,15.73
2023-05-09T10:27:55.748Z,16.58
2023-05-09T10:31:01.040Z,15.45
2023-05-09T10:33:48.387Z,15.73
2023-05-09T10:36:33.548Z,14.85
2023-05-09T10:39:19.291Z,14.68
2023-05-09T10:42:05.353Z,14.40
2023-05-09T10:44:52.346Z,15.07
2023-05-09T10:47:42.198Z,14.70
2023-05-09T10:50:27.635Z,13.65
2023-05-09T10:53:13.042Z,14.80
2023-05-09T10:55:58.484Z,14.48
2023-05-09T10:58:47.831Z,13.75
2023-05-09T11:01:33.925Z,12.82
2023-05-09T11:04:18.999Z,12.45
2023-05-09T11:07:22.282Z,11.55
2023-05-09T11:10:18.297Z,12.20
2023-05-09T11:13:03.241Z,12.30
2023-05-09T11:16:01.073Z,13.15
2023-05-09T11:18:51.642Z,12.98
2023-05-09T11:21:37.039Z,12.23
2023-05-09T11:24:22.629Z,13.02
2023-05-09T11:27:26.264Z,12.60
2023-05-09T11:30:13.442Z,12.15
2023-05-09T11:32:59.156Z,11.57
2023-05-09T11:35:44.557Z,11.68
2023-05-09T11:38:41.277Z,12.40
2023-05-09T11:41:27.192Z,12.88
2023-05-09T11:44:16.968Z,12.93
2023-05-09T11:47:02.321Z,13.10
2023-05-09T11:49:50.437Z,12.55
2023-05-09T11:52:36.597Z,12.98
2023-05-09T11:55:28.025Z,12.40
2023-05-09T11:58:13.442Z,12.35
2023-05-09T12:00:59.026Z,11.30
2023-05-09T12:03:45.278Z,10.68
2023-05-09T12:06:30.908Z,11.25
2023-05-09T12:09:16.255Z,11.38
2023-05-09T12:12:01.514Z,11.00
2023-05-09T12:14:48.383Z,10.10
2023-05-09T12:17:35.221Z,10.50
2023-05-09T12:20:20.741Z,10.18
2023-05-09T12:23:06.806Z,10.55
2023-05-09T12:25:56.726Z,10.25
2023-05-09T12:28:42.527Z,9.60
2023-05-09T12:31:28.209Z,9.38
2023-05-09T12:34:13.493Z,8.60
2023-05-09T12:36:58.787Z,7.68
2023-05-09T12:40:06.130Z,7.68
2023-05-09T12:42:51.311Z,6.90
2023-05-09T12:45:38.898Z,6.80
2023-05-09T12:48:24.807Z,6.15
2023-05-09T12:51:10.373Z,6.40
2023-05-09T12:54:02.264Z,6.45
2023-05-09T12:56:47.405Z,6.60
2023-05-09T12:59:32.585Z,6.82
2023-05-09T13:02:18.069Z,6.47
2023-05-09T13:05:10.890Z,6.70
2023-05-09T13:07:56.831Z,6.80
2023-05-09T13:10:42.239Z,6.28
2023-05-09T13:13:27.869Z,6.72
2023-05-09T13:16:15.776Z,6.38
2023-05-09T13:19:02.485Z,6.43
2023-05-09T13:21:47.960Z,6.57
2023-05-09T13:24:33.212Z,7.18
2023-05-09T13:27:18.541Z,6.53
2023-05-09T13:30:05.048Z,6.20
2023-05-09T13:32:50.104Z,7.28
2023-05-09T13:35:35.245Z,10.00
2023-05-09T13:38:20.564Z,11.68
2023-05-09T13:41:06.566Z,13.68
2023-05-09T13:43:51.966Z,13.30
2023-05-09T13:46:37.370Z,15.20
2023-05-09T13:49:23.112Z,14.20
2023-05-09T13:52:08.273Z,15.18
2023-05-09T13:54:53.810Z,14.20
2023-05-09T13:57:39.138Z,14.38
2023-05-09T14:00:24.247Z,14.02
2023-05-09T14:03:09.118Z,14.18
2023-05-09T14:06:02.091Z,14.90
2023-05-09T14:08:47.667Z,14.70
2023-05-09T14:11:33.205Z,14.27
2023-05-09T14:14:24.389Z,13.60
2023-05-09T14:17:09.613Z,13.15
2023-05-09T14:19:55.013Z,13.48
2023-05-09T14:22:39.924Z,11.88
2023-05-09T14:25:25.194Z,13.07
2023-05-09T14:28:10.156Z,11.63
2023-05-09T14:30:55.621Z,11.73
2023-05-09T14:33:40.935Z,12.52
2023-05-09T14:36:28.585Z,11.18
2023-05-09T14:39:13.927Z,11.93
2023-05-09T14:41:59.421Z,11.57
2023-05-09T14:44:44.864Z,11.10
2023-05-09T14:47:30.508Z,10.48
2023-05-09T14:50:16.053Z,11.77
2023-05-09T14:53:01.725Z,10.95
2023-05-09T14:55:47.139Z,10.18
2023-05-09T14:58:32.525Z,10.63
2023-05-09T15:01:17.922Z,9.75
2023-05-09T15:04:03.345Z,10.18
2023-05-09T15:06:48.920Z,9.70
2023-05-09T15:09:35.406Z,9.98
2023-05-09T15:12:20.581Z,9.98
2023-05-09T15:15:23.910Z,10.73
2023-05-09T15:18:09.164Z,9.80
2023-05-09T15:20:55.427Z,10.85
2023-05-09T15:23:40.565Z,9.43
2023-05-09T15:26:25.935Z,9.23
2023-05-09T15:29:10.950Z,8.43
2023-05-09T15:31:56.300Z,7.47
2023-05-09T15:34:41.620Z,8.55
2023-05-09T15:37:27.075Z,7.00
2023-05-09T15:40:12.508Z,6.85
2023-05-09T15:42:57.613Z,7.00
2023-05-09T15:45:42.923Z,6.82
2023-05-09T15:48:28.250Z,6.70
2023-05-09T15:51:13.663Z,7.35
2023-05-09T15:53:58.960Z,7.47
2023-05-09T15:56:44.359Z,6.97
2023-05-09T15:59:29.719Z,6.72
2023-05-09T16:02:15.373Z,7.07
2023-05-09T16:05:00.609Z,7.03
2023-05-09T16:07:46.925Z,8.20
2023-05-09T16:10:33.210Z,7.53
2023-05-09T16:13:18.421Z,7.75
2023-05-09T16:16:04.388Z,7.43
2023-05-09T16:18:49.796Z,8.10
2023-05-09T16:21:36.982Z,8.63
2023-05-09T16:24:22.193Z,8.98
2023-05-09T16:27:07.572Z,9.25
2023-05-09T16:29:52.515Z,9.13
2023-05-09T16:32:37.923Z,9.20
2023-05-09T16:35:23.317Z,10.20
2023-05-09T16:38:08.744Z,9.73
2023-05-09T16:40:53.986Z,9.57
2023-05-09T16:43:39.415Z,9.32
2023-05-09T16:46:24.692Z,9.57
2023-05-09T16:49:09.745Z,9.00
2023-05-09T16:51:55.041Z,9.57
2023-05-09T16:54:39.838Z,9.13
2023-05-09T16:57:25.082Z,9.60
2023-05-09T17:00:10.876Z,9.07
2023-05-09T17:02:56.631Z,8.80
2023-05-09T17:05:41.666Z,8.82
2023-05-09T17:08:26.539Z,8.77
2023-05-09T17:11:12.091Z,8.10
2023-05-09T17:13:57.337Z,7.75
2023-05-09T17:16:42.706Z,8.90
2023-05-09T17:19:27.779Z,8.95
2023-05-09T17:22:13.149Z,8.20
2023-05-09T17:24:58.633Z,8.07
2023-05-09T17:27:43.396Z,7.75
2023-05-09T17:30:28.425Z,8.20
2023-05-09T17:33:13.799Z,7.60
2023-05-09T17:35:59.174Z,8.63
2023-05-09T17:38:44.658Z,8.18
2023-05-09T17:41:30.565Z,9.15
2023-05-09T17:44:15.687Z,9.63
2023-05-09T17:47:00.938Z,8.73
2023-05-09T17:49:46.876Z,9.48
2023-05-09T17:52:37.847Z,8.35
2023-05-09T17:55:22.649Z,8.90
2023-05-09T17:58:08.107Z,9.13
2023-05-09T18:00:53.411Z,8.77
2023-05-09T18:03:40.052Z,8.32
2023-05-09T18:06:25.107Z,18.20
2023-05-09T18:09:16.612Z,8.68
2023-05-09T18:12:03.067Z,8.07
2023-05-09T18:14:47.902Z,8.95
2023-05-09T18:17:33.220Z,8.52
2023-05-09T18:20:18.839Z,8.57
2023-05-09T18:23:04.231Z,8.35
2023-05-09T18:25:49.576Z,8.65
2023-05-09T18:28:34.804Z,9.70
2023-05-09T18:31:19.964Z,9.05
2023-05-09T18:34:05.338Z,10.60
2023-05-09T18:36:50.714Z,10.48
2023-05-09T18:39:35.568Z,9.10
2023-05-09T18:42:21.227Z,10.32
2023-05-09T18:45:08.112Z,10.13
2023-05-09T18:47:53.067Z,10.23
2023-05-09T18:50:37.953Z,10.52
2023-05-09T18:53:23.526Z,10.50
2023-05-09T18:56:09.052Z,11.05
2023-05-09T18:58:54.020Z,11.70
2023-05-09T19:01:38.879Z,11.45
2023-05-09T19:04:23.869Z,11.95
2023-05-09T19:07:15.483Z,12.55
2023-05-09T19:10:00.869Z,13.35
2023-05-09T19:12:46.264Z,13.55
2023-05-09T19:15:31.364Z,13.73
2023-05-09T19:18:16.231Z,13.68
2023-05-09T19:21:01.289Z,14.38
2023-05-09T19:23:46.643Z,14.60
2023-05-09T19:26:32.054Z,14.57
2023-05-09T19:29:17.333Z,13.77
2023-05-09T19:32:02.704Z,12.70
2023-05-09T19:34:48.188Z,11.27
2023-05-09T19:37:33.140Z,12.27
2023-05-09T19:40:18.087Z,10.80
2023-05-09T19:43:03.607Z,10.95
2023-05-09T19:45:48.828Z,10.15
2023-05-09T19:48:34.076Z,11.43
2023-05-09T19:51:19.093Z,11.15
2023-05-09T19:54:04.761Z,9.88
2023-05-09T19:56:50.010Z,9.20
2023-05-09T19:59:34.944Z,11.02
2023-05-09T20:02:19.936Z,12.75
2023-05-09T20:05:05.709Z,10.60
2023-05-09T20:07:51.072Z,11.48
2023-05-09T20:10:36.493Z,11.65
2023-05-09T20:13:21.475Z,11.07
2023-05-09T20:16:06.813Z,10.60
2023-05-09T20:18:52.224Z,10.98
2023-05-09T20:21:37.603Z,12.00
2023-05-09T20:24:23.020Z,12.50
2023-05-09T20:27:08.430Z,13.82
2023-05-09T20:29:53.841Z,12.70
2023-05-09T20:32:39.352Z,13.10
2023-05-09T20:35:24.871Z,13.02
2023-05-09T20:38:10.915Z,14.10
2023-05-09T20:40:55.934Z,13.40
2023-05-09T20:43:41.393Z,13.07
2023-05-09T20:46:26.694Z,13.80
2023-05-09T20:49:11.899Z,13.68
2023-05-09T20:51:57.127Z,15.63
2023-05-09T20:54:42.480Z,14.40
2023-05-09T20:57:27.531Z,19.40
2023-05-09T21:00:13.483Z,15.50
2023-05-09T21:02:59.006Z,14.90
2023-05-09T21:05:44.096Z,15.68
2023-05-09T21:08:28.992Z,15.75
2023-05-09T21:11:13.861Z,15.45
2023-05-09T21:13:59.297Z,17.55
2023-05-09T21:16:44.715Z,18.13
2023-05-09T21:19:29.944Z,17.20
2023-05-09T21:22:15.445Z,15.50
2023-05-09T21:25:00.300Z,16.00
2023-05-09T21:27:45.799Z,16.65
2023-05-09T21:30:30.801Z,18.38
2023-05-09T21:33:15.929Z,20.20
2023-05-09T21:36:01.431Z,19.52
2023-05-09T21:38:46.564Z,18.73
2023-05-09T21:41:32.270Z,19.38
2023-05-09T21:44:17.361Z,18.52
2023-05-09T21:47:02.652Z,18.00
2023-05-09T21:49:47.815Z,20.63
2023-05-09T21:52:33.209Z,16.92
2023-05-09T21:55:18.725Z,19.05
2023-05-09T21:58:04.048Z,19.08
2023-05-09T22:00:49.556Z,18.52
2023-05-09T22:03:35.188Z,21.58
2023-05-09T22:06:20.154Z,17.25
2023-05-09T22:09:05.557Z,17.27
2023-05-09T22:11:52.050Z,18.52
2023-05-09T22:14:45.344Z,20.60
2023-05-09T22:17:40.800Z,19.38
2023-05-09T22:20:26.300Z,20.65
2023-05-09T22:23:11.988Z,18.90
2023-05-09T22:25:58.170Z,18.95
2023-05-09T22:28:43.277Z,19.33
2023-05-09T22:31:28.820Z,17.88
2023-05-09T22:34:14.064Z,20.27
2023-05-09T22:36:59.566Z,21.13
2023-05-09T22:39:44.866Z,18.08
2023-05-09T22:42:30.409Z,17.20
2023-05-09T22:45:15.655Z,19.50
2023-05-09T22:48:00.913Z,21.30
2023-05-09T22:50:46.528Z,22.48
2023-05-09T22:53:31.799Z,20.25
2023-05-09T22:56:17.184Z,19.67
2023-05-09T22:59:02.081Z,21.25
2023-05-09T23:01:47.395Z,21.98
2023-05-09T23:04:32.734Z,22.55
2023-05-09T23:07:17.601Z,19.83
2023-05-09T23:10:03.574Z,19.73
2023-05-09T23:12:48.598Z,20.00
2023-05-09T23:15:33.589Z,20.90
2023-05-09T23:18:19.018Z,20.65
2023-05-09T23:21:05.161Z,19.33
2023-05-09T23:23:50.427Z,21.10
2023-05-09T23:26:35.465Z,19.67
2023-05-09T23:29:20.741Z,19.17
2023-05-09T23:32:05.452Z,17.73
2023-05-09T23:34:50.807Z,19.65
2023-05-09T23:37:36.090Z,20.02
2023-05-09T23:40:21.288Z,21.83
2023-05-09T23:43:06.690Z,20.65
2023-05-09T23:45:52.138Z,19.75
2023-05-09T23:48:37.574Z,18.92
2023-05-09T23:51:23.333Z,18.98
2023-05-09T23:54:08.670Z,24.52
2023-05-09T23:56:53.577Z,21.27
2023-05-09T23:59:38.497Z,21.05
